createdAt,value
2023-11-25T00:00:08.566Z,-0.58
2023-11-25T00:02:36.292Z,-0.57
2023-11-25T00:05:06.869Z,-0.75
2023-11-25T00:07:36.269Z,-0.49
2023-11-25T00:10:06.622Z,-1.02
2023-11-25T00:12:34.373Z,-0.57
2023-11-25T00:15:02.201Z,-0.95
2023-11-25T00:17:31.284Z,-0.53
2023-11-25T00:19:59.880Z,-0.85
2023-11-25T00:22:29.149Z,-0.43
2023-11-25T00:24:57.397Z,-0.43
2023-11-25T00:27:25.064Z,-0.40
2023-11-25T00:29:52.769Z,-0.46
2023-11-25T00:32:21.393Z,-0.43
2023-11-25T00:34:49.192Z,-0.75
2023-11-25T00:37:17.543Z,-0.43
2023-11-25T00:39:46.695Z,-0.73
2023-11-25T00:42:15.181Z,-0.59
2023-11-25T00:44:43.030Z,-1.16
2023-11-25T00:47:14.166Z,-0.58
2023-11-25T00:49:44.715Z,-0.56
2023-11-25T00:52:13.102Z,-0.61
2023-11-25T00:54:40.834Z,-0.49
2023-11-25T00:57:09.915Z,-0.85
2023-11-25T00:59:37.805Z,-0.51
2023-11-25T01:02:06.649Z,-0.50
2023-11-25T01:04:34.562Z,-0.71
2023-11-25T01:07:02.299Z,-0.48
2023-11-25T01:09:31.874Z,-0.49
2023-11-25T01:11:59.531Z,-0.76
2023-11-25T01:14:28.555Z,-0.63
2023-11-25T01:16:56.357Z,-0.47
2023-11-25T01:19:24.404Z,-0.43
2023-11-25T01:21:53.795Z,-0.39
2023-11-25T01:24:21.387Z,-0.39
2023-11-25T01:26:49.659Z,-0.29
2023-11-25T01:29:19.126Z,-0.81
2023-11-25T01:31:48.098Z,-0.71
2023-11-25T01:34:15.817Z,-0.31
2023-11-25T01:36:43.608Z,-0.87
2023-11-25T01:39:11.259Z,-0.39
2023-11-25T01:41:38.985Z,-0.26
2023-11-25T01:44:08.595Z,-0.24
2023-11-25T01:46:40.682Z,-0.46
2023-11-25T01:49:13.902Z,-0.87
2023-11-25T01:51:44.964Z,-0.45
2023-11-25T01:54:15.217Z,-0.31
2023-11-25T01:56:43.757Z,-0.36
2023-11-25T01:59:13.558Z,-0.39
2023-11-25T02:01:41.461Z,-0.35
2023-11-25T02:04:10.707Z,-0.34
2023-11-25T02:06:38.500Z,-0.32
2023-11-25T02:09:06.594Z,-0.29
2023-11-25T02:11:35.025Z,-0.39
2023-11-25T02:14:02.845Z,-0.70
2023-11-25T02:16:30.611Z,-0.31
2023-11-25T02:18:58.184Z,-0.48
2023-11-25T02:21:27.245Z,-0.45
2023-11-25T02:23:56.221Z,-0.38
2023-11-25T02:26:23.877Z,-0.34
2023-11-25T02:28:51.696Z,-0.28
2023-11-25T02:31:19.458Z,-0.22
2023-11-25T02:33:47.129Z,-0.26
2023-11-25T02:36:17.650Z,-0.58
2023-11-25T02:38:46.864Z,-0.41
2023-11-25T02:41:15.902Z,-0.50
2023-11-25T02:43:43.851Z,-0.24
2023-11-25T02:46:11.584Z,-0.25
2023-11-25T02:48:40.327Z,-0.29
2023-11-25T02:51:09.560Z,-0.28
2023-11-25T02:53:37.165Z,-0.29
2023-11-25T02:56:05.103Z,-0.33
2023-11-25T02:58:34.418Z,-0.30
2023-11-25T03:01:08.111Z,-0.39
2023-11-25T03:03:43.032Z,-0.48
2023-11-25T03:06:11.129Z,-0.46
2023-11-25T03:08:40.074Z,-0.48
2023-11-25T03:11:13.574Z,-0.62
2023-11-25T03:13:46.196Z,-0.55
2023-11-25T03:16:14.085Z,-0.60
2023-11-25T03:18:41.961Z,-0.67
2023-11-25T03:21:10.899Z,-0.60
2023-11-25T03:23:38.889Z,-0.61
2023-11-25T03:26:07.160Z,-1.13
2023-11-25T03:28:34.803Z,-0.60
2023-11-25T03:31:06.522Z,-0.55
2023-11-25T03:33:36.784Z,-0.65
2023-11-25T03:36:04.912Z,-0.56
2023-11-25T03:38:32.631Z,-0.51
2023-11-25T03:41:00.307Z,-0.51
2023-11-25T03:43:27.990Z,-0.59
2023-11-25T03:45:55.557Z,-0.71
2023-11-25T03:48:24.942Z,-0.49
2023-11-25T03:50:52.418Z,-0.58
2023-11-25T03:53:20.179Z,-0.58
2023-11-25T03:55:47.793Z,-0.57
2023-11-25T03:58:15.421Z,-0.47
2023-11-25T04:00:42.976Z,-0.49
2023-11-25T04:03:10.610Z,-0.53
2023-11-25T04:05:39.558Z,-0.74
2023-11-25T04:08:07.147Z,-0.44
2023-11-25T04:10:34.688Z,-0.41
2023-11-25T04:13:02.279Z,-0.43
2023-11-25T04:15:29.796Z,-0.34
2023-11-25T04:17:57.417Z,-0.36
2023-11-25T04:20:30.260Z,-0.40
2023-11-25T04:23:06.831Z,-0.31
2023-11-25T04:25:35.558Z,-0.35
2023-11-25T04:28:05.492Z,-0.26
2023-11-25T04:30:33.088Z,-0.32
2023-11-25T04:33:00.785Z,-0.21
2023-11-25T04:35:28.513Z,-0.18
2023-11-25T04:37:56.056Z,-0.15
2023-11-25T04:40:25.365Z,-0.59
2023-11-25T04:42:52.984Z,-0.17
2023-11-25T04:45:21.407Z,-0.12
2023-11-25T04:47:51.575Z,-0.45
2023-11-25T04:50:21.476Z,-0.15
2023-11-25T04:52:49.208Z,-0.10
2023-11-25T04:55:17.235Z,-0.04
2023-11-25T04:57:46.490Z,0.00
2023-11-25T05:00:15.960Z,-0.04
2023-11-25T05:02:44.235Z,-0.07
2023-11-25T05:05:13.258Z,0.08
2023-11-25T05:07:41.786Z,0.14
2023-11-25T05:10:11.746Z,-0.02
2023-11-25T05:12:39.949Z,0.02
2023-11-25T05:15:10.132Z,0.01
2023-11-25T05:17:37.943Z,0.13
2023-11-25T05:20:10.376Z,-0.12
2023-11-25T05:22:38.339Z,0.17
2023-11-25T05:25:07.604Z,0.17
2023-11-25T05:27:35.125Z,-0.02
2023-11-25T05:30:03.205Z,0.02
2023-11-25T05:32:32.867Z,0.19
2023-11-25T05:35:00.420Z,-0.06
2023-11-25T05:37:28.429Z,-0.22
2023-11-25T05:39:56.225Z,0.19
2023-11-25T05:42:28.130Z,0.19
2023-11-25T05:44:56.846Z,0.17
2023-11-25T05:47:24.355Z,0.23
2023-11-25T05:49:53.902Z,0.19
2023-11-25T05:52:21.423Z,0.20
2023-11-25T05:54:49.004Z,0.07
2023-11-25T05:57:16.482Z,0.13
2023-11-25T05:59:44.261Z,0.13
2023-11-25T06:02:11.849Z,0.17
2023-11-25T06:04:39.533Z,0.14
2023-11-25T06:07:08.512Z,0.14
2023-11-25T06:09:36.021Z,0.18
2023-11-25T06:12:03.647Z,0.14
2023-11-25T06:14:33.955Z,0.19
2023-11-25T06:17:03.231Z,0.13
2023-11-25T06:19:32.245Z,0.13
2023-11-25T06:22:01.987Z,0.14
2023-11-25T06:24:30.833Z,0.13
2023-11-25T06:26:58.322Z,0.13
2023-11-25T06:29:25.802Z,0.12
2023-11-25T06:31:53.284Z,0.14
2023-11-25T06:34:20.969Z,0.18
2023-11-25T06:36:49.322Z,0.11
2023-11-25T06:39:20.289Z,0.11
2023-11-25T06:41:50.758Z,0.13
2023-11-25T06:44:18.630Z,0.09
2023-11-25T06:46:47.220Z,0.09
2023-11-25T06:49:15.027Z,0.07
2023-11-25T06:51:43.189Z,0.14
2023-11-25T06:54:10.822Z,0.13
2023-11-25T06:56:39.369Z,0.14
2023-11-25T06:59:08.329Z,0.22
2023-11-25T07:01:36.095Z,0.21
2023-11-25T07:04:05.415Z,0.12
2023-11-25T07:06:33.022Z,-0.07
2023-11-25T07:09:01.585Z,0.27
2023-11-25T07:11:31.537Z,0.20
2023-11-25T07:13:59.144Z,0.25
2023-11-25T07:16:28.066Z,0.15
2023-11-25T07:18:56.049Z,0.24
2023-11-25T07:21:25.125Z,0.23
2023-11-25T07:23:52.699Z,0.26
2023-11-25T07:26:20.516Z,0.23
2023-11-25T07:28:48.081Z,0.25
2023-11-25T07:31:16.013Z,0.20
2023-11-25T07:33:45.732Z,0.10
2023-11-25T07:36:14.836Z,0.14
2023-11-25T07:38:42.996Z,0.16
2023-11-25T07:41:17.577Z,0.10
2023-11-25T07:43:45.284Z,0.04
2023-11-25T07:46:12.959Z,0.03
2023-11-25T07:48:40.536Z,0.11
2023-11-25T07:51:09.507Z,0.12
2023-11-25T07:53:37.392Z,-0.47
2023-11-25T07:56:06.246Z,0.07
2023-11-25T07:58:33.797Z,0.04
2023-11-25T08:01:01.331Z,0.06
2023-11-25T08:03:29.007Z,0.03
2023-11-25T08:05:56.915Z,-0.05
2023-11-25T08:08:26.641Z,-0.16
2023-11-25T08:10:54.298Z,0.01
2023-11-25T08:13:22.031Z,-0.26
2023-11-25T08:15:50.367Z,0.05
2023-11-25T08:18:19.369Z,0.12
2023-11-25T08:20:47.527Z,0.16
2023-11-25T08:23:16.449Z,-0.07
2023-11-25T08:25:45.553Z,0.33
2023-11-25T08:28:13.402Z,0.39
2023-11-25T08:30:41.094Z,0.45
2023-11-25T08:33:08.761Z,0.36
2023-11-25T08:35:36.469Z,0.37
2023-11-25T08:38:04.420Z,0.42
2023-11-25T08:40:32.688Z,0.19
2023-11-25T08:43:05.216Z,0.50
2023-11-25T08:45:33.190Z,0.68
2023-11-25T08:48:00.848Z,0.74
2023-11-25T08:50:29.878Z,0.64
2023-11-25T08:52:58.080Z,0.66
2023-11-25T08:55:25.733Z,0.60
2023-11-25T08:57:53.440Z,0.16
2023-11-25T09:00:22.896Z,0.58
2023-11-25T09:02:53.764Z,0.50
2023-11-25T09:05:23.680Z,0.57
2023-11-25T09:07:52.876Z,0.49
2023-11-25T09:10:20.829Z,0.47
2023-11-25T09:12:48.436Z,0.48
2023-11-25T09:15:16.031Z,0.51
2023-11-25T09:17:44.931Z,0.51
2023-11-25T09:20:16.631Z,0.41
2023-11-25T09:22:44.990Z,-0.01
2023-11-25T09:25:13.410Z,0.38
2023-11-25T09:27:41.265Z,0.35
2023-11-25T09:30:12.455Z,0.17
2023-11-25T09:32:40.712Z,0.51
2023-11-25T09:35:11.981Z,0.61
2023-11-25T09:37:39.836Z,0.67
2023-11-25T09:40:15.181Z,0.62
2023-11-25T09:42:44.300Z,0.48
2023-11-25T09:45:12.920Z,0.50
2023-11-25T09:47:44.362Z,0.31
2023-11-25T09:50:14.315Z,0.62
2023-11-25T09:52:51.304Z,0.80
2023-11-25T09:55:19.993Z,0.83
2023-11-25T09:57:51.913Z,0.67
2023-11-25T10:00:22.405Z,0.52
2023-11-25T10:02:53.850Z,0.67
2023-11-25T10:05:23.152Z,0.84
2023-11-25T10:07:50.730Z,0.79
2023-11-25T10:10:24.824Z,0.60
2023-11-25T10:12:52.887Z,0.78
2023-11-25T10:15:21.262Z,0.86
2023-11-25T10:17:50.804Z,0.87
2023-11-25T10:20:21.308Z,0.83
2023-11-25T10:22:54.260Z,0.92
2023-11-25T10:25:23.005Z,0.94
2023-11-25T10:27:52.271Z,0.85
2023-11-25T10:30:21.670Z,0.91
2023-11-25T10:32:53.330Z,0.85
2023-11-25T10:35:20.952Z,0.96
2023-11-25T10:37:49.986Z,0.91
2023-11-25T10:40:18.191Z,0.76
2023-11-25T10:42:47.398Z,0.79
2023-11-25T10:45:18.748Z,0.96
2023-11-25T10:47:46.775Z,0.86
2023-11-25T10:50:15.246Z,1.00
2023-11-25T10:52:45.840Z,1.02
2023-11-25T10:55:16.281Z,1.09
2023-11-25T10:57:47.882Z,1.07
2023-11-25T11:00:18.555Z,1.14
2023-11-25T11:02:48.972Z,1.22
2023-11-25T11:05:20.433Z,1.18
2023-11-25T11:07:50.953Z,1.28
2023-11-25T11:10:27.286Z,1.28
2023-11-25T11:13:01.102Z,1.28
2023-11-25T11:15:32.500Z,1.18
2023-11-25T11:18:12.056Z,1.16
2023-11-25T11:20:47.328Z,1.15
2023-11-25T11:23:16.754Z,1.17
2023-11-25T11:25:58.581Z,1.13
2023-11-25T11:28:38.540Z,1.14
2023-11-25T11:31:42.078Z,1.19
2023-11-25T11:34:09.841Z,1.18
2023-11-25T11:36:37.653Z,0.76
2023-11-25T11:39:05.501Z,1.08
2023-11-25T11:41:36.969Z,1.19
2023-11-25T11:44:06.093Z,1.18
2023-11-25T11:46:39.359Z,1.26
2023-11-25T11:49:08.178Z,1.33
2023-11-25T11:51:35.738Z,1.31
2023-11-25T11:54:25.451Z,1.51
2023-11-25T11:57:04.849Z,1.61
2023-11-25T12:00:12.517Z,1.60
2023-11-25T12:02:43.550Z,1.60
2023-11-25T12:05:11.992Z,1.68
2023-11-25T12:07:39.720Z,1.69
2023-11-25T12:10:08.107Z,1.69
2023-11-25T12:12:43.342Z,1.59
2023-11-25T12:15:11.465Z,1.54
2023-11-25T12:17:39.764Z,1.48
2023-11-25T12:20:09.828Z,1.49
2023-11-25T12:22:37.430Z,1.41
2023-11-25T12:25:05.858Z,1.61
2023-11-25T12:27:35.690Z,1.44
2023-11-25T12:30:05.174Z,1.64
2023-11-25T12:32:32.835Z,1.71
2023-11-25T12:35:00.498Z,1.67
2023-11-25T12:37:28.507Z,1.58
2023-11-25T12:39:56.045Z,1.82
2023-11-25T12:42:25.054Z,1.86
2023-11-25T12:44:54.741Z,1.74
2023-11-25T12:47:23.643Z,1.85
2023-11-25T12:49:52.193Z,1.80
2023-11-25T12:52:20.605Z,1.79
2023-11-25T12:54:50.284Z,1.76
2023-11-25T12:57:19.274Z,1.83
2023-11-25T12:59:47.351Z,1.68
2023-11-25T13:02:18.542Z,1.87
2023-11-25T13:04:48.477Z,1.85
2023-11-25T13:07:29.761Z,1.75
2023-11-25T13:09:57.268Z,1.83
2023-11-25T13:12:25.209Z,1.89
2023-11-25T13:14:53.139Z,1.89
2023-11-25T13:17:20.796Z,2.00
2023-11-25T13:19:49.834Z,1.98
2023-11-25T13:22:17.797Z,2.03
2023-11-25T13:24:45.848Z,1.95
2023-11-25T13:27:13.936Z,1.90
2023-11-25T13:29:43.142Z,1.87
2023-11-25T13:32:11.887Z,1.79
2023-11-25T13:34:40.944Z,1.72
2023-11-25T13:37:09.812Z,1.90
2023-11-25T13:39:37.362Z,1.96
2023-11-25T13:42:05.978Z,1.99
2023-11-25T13:44:33.747Z,1.97
2023-11-25T13:47:01.801Z,2.01
2023-11-25T13:49:30.801Z,2.04
2023-11-25T13:51:58.770Z,1.96
2023-11-25T13:54:27.681Z,1.92
2023-11-25T13:56:57.371Z,2.03
2023-11-25T13:59:25.234Z,1.97
2023-11-25T14:01:53.059Z,2.09
2023-11-25T14:04:22.705Z,2.06
2023-11-25T14:06:50.340Z,2.09
2023-11-25T14:09:19.047Z,2.05
2023-11-25T14:11:48.390Z,2.12
2023-11-25T14:14:16.584Z,2.16
2023-11-25T14:16:49.634Z,2.17
2023-11-25T14:19:18.380Z,2.11
2023-11-25T14:21:46.048Z,1.96
2023-11-25T14:24:13.643Z,2.07
2023-11-25T14:26:41.186Z,2.11
2023-11-25T14:29:10.136Z,2.15
2023-11-25T14:31:37.886Z,2.14
2023-11-25T14:34:05.679Z,2.13
2023-11-25T14:36:33.237Z,2.12
2023-11-25T14:39:00.788Z,1.67
2023-11-25T14:41:28.479Z,2.15
2023-11-25T14:43:56.094Z,2.24
2023-11-25T14:46:25.087Z,2.25
2023-11-25T14:48:52.682Z,2.27
2023-11-25T14:51:20.256Z,2.20
2023-11-25T14:53:47.824Z,1.80
2023-11-25T14:56:15.473Z,2.34
2023-11-25T14:58:43.057Z,2.30
2023-11-25T15:01:10.914Z,2.23
2023-11-25T15:03:40.972Z,2.24
2023-11-25T15:06:10.379Z,2.34
2023-11-25T15:08:38.082Z,2.41
2023-11-25T15:11:06.331Z,2.12
2023-11-25T15:13:34.127Z,2.33
2023-11-25T15:16:02.097Z,2.33
2023-11-25T15:18:30.147Z,2.30
2023-11-25T15:21:02.550Z,2.35
2023-11-25T15:23:30.127Z,2.14
2023-11-25T15:25:58.480Z,2.36
2023-11-25T15:28:26.097Z,2.34
2023-11-25T15:30:53.873Z,2.28
2023-11-25T15:33:21.478Z,2.32
2023-11-25T15:35:49.222Z,2.24
2023-11-25T15:38:18.384Z,2.24
2023-11-25T15:40:46.690Z,2.27
2023-11-25T15:43:15.594Z,2.24
2023-11-25T15:45:43.805Z,2.17
2023-11-25T15:48:12.633Z,1.97
2023-11-25T15:50:42.216Z,2.28
2023-11-25T15:53:13.631Z,2.19
2023-11-25T15:55:42.815Z,2.24
2023-11-25T15:58:13.158Z,2.23
2023-11-25T16:00:41.462Z,2.27
2023-11-25T16:03:09.540Z,2.18
2023-11-25T16:05:37.344Z,2.15
2023-11-25T16:08:05.544Z,2.23
2023-11-25T16:10:35.771Z,2.21
2023-11-25T16:13:04.663Z,2.16
2023-11-25T16:15:32.236Z,2.19
2023-11-25T16:18:00.226Z,2.15
2023-11-25T16:20:30.442Z,2.12
2023-11-25T16:22:58.548Z,2.16
2023-11-25T16:25:26.818Z,2.16
2023-11-25T16:27:54.432Z,1.71
2023-11-25T16:30:24.963Z,2.11
2023-11-25T16:32:52.647Z,2.19
2023-11-25T16:35:21.312Z,2.14
2023-11-25T16:37:50.711Z,1.84
2023-11-25T16:40:20.120Z,2.08
2023-11-25T16:42:47.801Z,2.12
2023-11-25T16:45:17.099Z,2.11
2023-11-25T16:47:46.044Z,2.13
2023-11-25T16:50:14.312Z,2.16
2023-11-25T16:52:42.102Z,2.17
2023-11-25T16:55:10.132Z,2.23
2023-11-25T16:57:38.857Z,2.22
2023-11-25T17:00:07.969Z,2.25
2023-11-25T17:02:35.891Z,2.24
2023-11-25T17:05:05.718Z,2.13
2023-11-25T17:07:34.148Z,1.63
2023-11-25T17:10:05.003Z,2.06
2023-11-25T17:12:32.816Z,2.13
2023-11-25T17:15:00.482Z,2.17
2023-11-25T17:17:28.251Z,2.14
2023-11-25T17:19:57.392Z,2.16
2023-11-25T17:22:26.386Z,2.14
2023-11-25T17:24:53.885Z,2.15
2023-11-25T17:27:22.101Z,2.16
2023-11-25T17:29:49.691Z,2.12
2023-11-25T17:32:17.398Z,2.14
2023-11-25T17:34:45.081Z,2.13
2023-11-25T17:37:13.964Z,2.14
2023-11-25T17:39:42.918Z,2.15
2023-11-25T17:42:10.521Z,2.15
2023-11-25T17:44:38.129Z,2.11
2023-11-25T17:47:07.710Z,2.21
2023-11-25T17:49:35.532Z,2.15
2023-11-25T17:52:04.924Z,2.18
2023-11-25T17:54:32.530Z,2.06
2023-11-25T17:57:02.568Z,2.19
2023-11-25T17:59:30.254Z,2.19
2023-11-25T18:01:59.122Z,2.22
2023-11-25T18:04:26.970Z,2.32
2023-11-25T18:06:54.533Z,2.27
2023-11-25T18:09:22.252Z,2.20
2023-11-25T18:11:50.386Z,2.21
2023-11-25T18:14:19.370Z,2.17
2023-11-25T18:16:47.639Z,2.24
2023-11-25T18:19:15.746Z,2.23
2023-11-25T18:21:43.439Z,2.21
2023-11-25T18:24:11.610Z,2.18
2023-11-25T18:26:39.210Z,2.21
2023-11-25T18:29:06.985Z,2.13
2023-11-25T18:31:36.038Z,1.87
2023-11-25T18:34:03.760Z,2.21
2023-11-25T18:36:31.859Z,2.20
2023-11-25T18:38:59.491Z,2.11
2023-11-25T18:41:27.116Z,2.10
2023-11-25T18:43:55.547Z,2.21
2023-11-25T18:46:24.600Z,2.17
2023-11-25T18:48:53.601Z,2.14
2023-11-25T18:51:21.215Z,2.15
2023-11-25T18:53:48.829Z,2.08
2023-11-25T18:56:16.464Z,2.18
2023-11-25T18:58:45.329Z,2.02
2023-11-25T19:01:15.946Z,1.69
2023-11-25T19:03:43.873Z,1.29
2023-11-25T19:06:13.129Z,2.12
2023-11-25T19:08:40.909Z,2.12
2023-11-25T19:11:09.272Z,2.15
2023-11-25T19:13:37.182Z,2.16
2023-11-25T19:16:05.429Z,1.53
2023-11-25T19:18:33.625Z,2.17
2023-11-25T19:21:01.605Z,2.20
2023-11-25T19:23:32.357Z,2.03
2023-11-25T19:26:04.004Z,2.00
2023-11-25T19:28:31.892Z,2.11
2023-11-25T19:30:59.884Z,1.81
2023-11-25T19:33:27.753Z,2.27
2023-11-25T19:35:55.652Z,2.00
2023-11-25T19:38:23.569Z,1.61
2023-11-25T19:40:52.608Z,2.27
2023-11-25T19:43:20.309Z,2.19
2023-11-25T19:45:48.115Z,2.30
2023-11-25T19:48:15.931Z,2.28
2023-11-25T19:50:43.737Z,2.32
2023-11-25T19:53:11.791Z,2.33
2023-11-25T19:55:39.589Z,1.75
2023-11-25T19:58:09.215Z,2.23
2023-11-25T20:00:49.143Z,2.30
2023-11-25T20:03:23.660Z,2.31
2023-11-25T20:05:51.528Z,2.32
2023-11-25T20:08:20.662Z,1.79
2023-11-25T20:10:49.256Z,0.82
2023-11-25T20:13:19.316Z,1.60
2023-11-25T20:15:49.913Z,0.62
2023-11-25T20:18:23.452Z,1.28
2023-11-25T20:20:53.171Z,1.81
2023-11-25T20:23:21.208Z,2.08
2023-11-25T20:25:49.075Z,2.14
2023-11-25T20:28:18.362Z,2.11
2023-11-25T20:30:46.461Z,1.96
2023-11-25T20:33:15.596Z,1.90
2023-11-25T20:35:50.452Z,1.80
2023-11-25T20:38:18.415Z,1.74
2023-11-25T20:40:46.426Z,1.76
2023-11-25T20:43:14.312Z,2.17
2023-11-25T20:45:43.701Z,2.18
2023-11-25T20:48:11.592Z,2.17
2023-11-25T20:50:41.037Z,1.90
2023-11-25T20:53:09.244Z,1.53
2023-11-25T20:55:37.458Z,2.15
2023-11-25T20:58:05.523Z,1.76
2023-11-25T21:00:34.599Z,2.14
2023-11-25T21:03:09.670Z,2.08
2023-11-25T21:05:37.623Z,2.02
2023-11-25T21:08:06.215Z,2.10
2023-11-25T21:10:34.321Z,2.07
2023-11-25T21:13:02.665Z,1.64
2023-11-25T21:15:30.572Z,2.08
2023-11-25T21:17:59.174Z,1.84
2023-11-25T21:20:28.512Z,2.05
2023-11-25T21:22:56.588Z,2.04
2023-11-25T21:25:24.573Z,1.82
2023-11-25T21:27:54.690Z,1.84
2023-11-25T21:30:22.576Z,2.01
2023-11-25T21:32:50.980Z,1.98
2023-11-25T21:35:19.038Z,1.64
2023-11-25T21:37:48.312Z,2.01
2023-11-25T21:40:22.902Z,1.69
2023-11-25T21:42:51.502Z,1.95
2023-11-25T21:45:19.512Z,1.97
2023-11-25T21:47:47.597Z,1.96
2023-11-25T21:50:15.389Z,1.70
2023-11-25T21:52:43.150Z,1.91
2023-11-25T21:55:12.298Z,1.23
2023-11-25T21:57:40.642Z,1.73
2023-11-25T22:00:11.386Z,1.92
2023-11-25T22:02:39.345Z,1.89
2023-11-25T22:05:09.939Z,1.73
2023-11-25T22:07:37.930Z,1.73
2023-11-25T22:10:09.506Z,1.88
2023-11-25T22:12:41.716Z,1.89
2023-11-25T22:15:11.143Z,1.85
2023-11-25T22:17:38.734Z,1.58
2023-11-25T22:20:09.076Z,1.64
2023-11-25T22:22:36.751Z,1.30
2023-11-25T22:25:11.358Z,1.75
2023-11-25T22:27:39.827Z,1.69
2023-11-25T22:30:12.655Z,1.78
2023-11-25T22:32:40.385Z,1.77
2023-11-25T22:35:08.780Z,1.60
2023-11-25T22:37:37.653Z,1.75
2023-11-25T22:40:05.788Z,1.75
2023-11-25T22:42:33.347Z,1.73
2023-11-25T22:45:00.865Z,1.74
2023-11-25T22:47:29.882Z,1.75
2023-11-25T22:49:57.929Z,1.63
2023-11-25T22:52:25.873Z,1.66
2023-11-25T22:54:54.385Z,1.70
2023-11-25T22:57:21.965Z,0.97
2023-11-25T22:59:53.520Z,1.59
2023-11-25T23:02:21.606Z,1.67
2023-11-25T23:04:50.808Z,1.62
2023-11-25T23:07:18.361Z,1.66
2023-11-25T23:09:45.966Z,1.59
2023-11-25T23:12:13.794Z,1.50
2023-11-25T23:14:42.975Z,1.61
2023-11-25T23:17:11.604Z,1.51
2023-11-25T23:19:39.348Z,1.62
2023-11-25T23:22:08.260Z,1.54
2023-11-25T23:24:35.866Z,1.60
2023-11-25T23:27:05.013Z,1.52
2023-11-25T23:29:32.624Z,1.63
2023-11-25T23:32:00.251Z,1.49
2023-11-25T23:34:27.988Z,1.49
2023-11-25T23:36:55.532Z,1.63
2023-11-25T23:39:24.420Z,1.63
2023-11-25T23:41:52.300Z,1.58
2023-11-25T23:44:20.161Z,1.72
2023-11-25T23:46:47.760Z,1.66
2023-11-25T23:49:15.327Z,1.72
2023-11-25T23:51:42.926Z,1.66
2023-11-25T23:54:10.449Z,1.46
2023-11-25T23:56:39.506Z,1.39
2023-11-25T23:59:07.126Z,1.62
